Time;durP1;ratioP1;P1;durP2;ratioP2;P2;SDS_P1;SDS_P2;PMS_P1;PMS_P2;Temp;Humidity;BMP_temperature;BMP_pressure;BME280_temperature;BME280_humidity;BME280_pressure;Samples;Min_cycle;Max_cycle;Signal;HPM_P1;HPM_P2
2021/07/11 00:00:15;;;;;;;15.43;14.73;;;16.30;99.90;;;;;;5022889;28;20456;-66
2021/07/11 00:02:41;;;;;;;15.47;14.77;;;16.30;99.90;;;;;;5017988;28;20464;-68
2021/07/11 00:05:11;;;;;;;15.03;14.33;;;16.20;99.90;;;;;;5022588;28;20572;-70
2021/07/11 00:07:38;;;;;;;15.67;14.97;;;16.20;99.90;;;;;;5014155;28;20911;-67
2021/07/11 00:10:07;;;;;;;15.07;14.37;;;16.30;99.90;;;;;;5022006;28;20462;-70
2021/07/11 00:12:35;;;;;;;15.27;14.57;;;16.20;99.90;;;;;;5015538;28;20457;-68
2021/07/11 00:15:04;;;;;;;14.87;14.20;;;16.20;99.90;;;;;;5016277;28;20860;-68
2021/07/11 00:17:32;;;;;;;14.50;13.90;;;16.30;99.90;;;;;;5018263;28;20467;-67
2021/07/11 00:19:59;;;;;;;15.03;14.33;;;16.30;99.90;;;;;;5019762;28;20515;-68
2021/07/11 00:22:26;;;;;;;14.37;13.77;;;16.30;99.90;;;;;;5013881;28;20470;-67
2021/07/11 00:24:54;;;;;;;14.37;13.77;;;16.20;99.90;;;;;;5018832;28;20465;-69
2021/07/11 00:27:22;;;;;;;14.00;13.40;;;16.30;99.90;;;;;;5016622;28;20734;-68
2021/07/11 00:29:50;;;;;;;14.60;14.00;;;16.30;99.90;;;;;;5020372;28;21273;-69
2021/07/11 00:32:17;;;;;;;14.10;13.50;;;16.30;99.90;;;;;;5018950;28;21033;-67
2021/07/11 00:34:45;;;;;;;15.63;14.67;;;16.30;99.90;;;;;;5020554;28;21006;-68
2021/07/11 00:37:12;;;;;;;13.90;13.30;;;16.20;99.90;;;;;;5023732;28;20461;-67
2021/07/11 00:39:41;;;;;;;14.03;13.43;;;16.20;99.90;;;;;;5014514;28;20489;-69
2021/07/11 00:42:12;;;;;;;13.10;12.57;;;16.20;99.90;;;;;;5018913;28;20457;-68
2021/07/11 00:44:39;;;;;;;14.40;13.80;;;16.30;99.90;;;;;;5015989;28;20476;-67
2021/07/11 00:47:08;;;;;;;14.20;13.60;;;16.30;99.90;;;;;;5015742;28;20496;-67
2021/07/11 00:49:36;;;;;;;13.90;13.30;;;16.20;99.90;;;;;;5018996;28;20477;-68
2021/07/11 00:52:04;;;;;;;15.13;14.43;;;16.20;99.90;;;;;;5020795;28;20831;-68
2021/07/11 00:54:33;;;;;;;13.50;12.90;;;16.30;99.90;;;;;;5023673;28;20471;-68
2021/07/11 00:57:01;;;;;;;13.73;13.13;;;16.30;99.90;;;;;;5017729;28;20461;-69
2021/07/11 00:59:29;;;;;;;13.90;13.30;;;16.30;99.90;;;;;;5018724;28;21034;-67
2021/07/11 01:02:03;;;;;;;14.37;13.77;;;16.20;99.90;;;;;;5027362;28;20464;-68
2021/07/11 01:04:47;;;;;;;14.23;13.63;;;16.20;99.90;;;;;;5022649;28;20464;-70
2021/07/11 01:07:15;;;;;;;14.20;13.60;;;16.10;99.90;;;;;;5014737;28;20523;-67
2021/07/11 01:09:46;;;;;;;14.87;14.17;;;16.10;99.90;;;;;;5017816;28;20478;-69
2021/07/11 01:12:20;;;;;;;14.50;13.90;;;16.00;99.90;;;;;;5020669;28;20468;-67
2021/07/11 01:14:49;;;;;;;14.40;13.80;;;16.00;99.90;;;;;;5022372;28;20560;-69
2021/07/11 01:17:17;;;;;;;14.70;14.10;;;16.00;99.90;;;;;;5017090;28;20476;-67
2021/07/11 01:19:57;;;;;;;14.60;14.00;;;16.00;99.90;;;;;;5015218;28;20520;-69
2021/07/11 01:22:29;;;;;;;15.30;14.60;;;16.00;99.90;;;;;;5017802;28;20551;-68
2021/07/11 01:25:01;;;;;;;14.57;13.93;;;16.00;99.90;;;;;;5015408;28;20468;-69
2021/07/11 01:27:31;;;;;;;15.03;14.33;;;15.90;99.90;;;;;;5011647;28;20499;-68
2021/07/11 01:29:59;;;;;;;14.30;13.70;;;15.90;99.90;;;;;;5019116;28;20866;-69
2021/07/11 01:32:27;;;;;;;14.57;13.97;;;15.90;99.90;;;;;;5021256;28;20481;-68
2021/07/11 01:34:56;;;;;;;14.17;13.57;;;15.80;99.90;;;;;;5019517;28;21021;-68
2021/07/11 01:37:23;;;;;;;14.50;13.90;;;15.90;99.90;;;;;;5016796;28;20468;-68
2021/07/11 01:39:50;;;;;;;13.90;13.30;;;15.80;99.90;;;;;;5023200;28;20515;-71
2021/07/11 01:42:18;;;;;;;23.67;22.47;;;15.90;99.90;;;;;;5017087;28;20837;-67
2021/07/11 01:44:49;;;;;;;14.03;13.43;;;15.80;99.90;;;;;;5018864;28;20460;-68
2021/07/11 01:47:16;;;;;;;13.87;13.27;;;15.80;99.90;;;;;;5019505;28;20546;-68
2021/07/11 01:49:45;;;;;;;13.70;13.10;;;15.90;99.90;;;;;;5021299;28;20461;-68
2021/07/11 01:52:13;;;;;;;13.03;12.53;;;16.00;99.90;;;;;;5020070;28;20468;-69
2021/07/11 01:54:40;;;;;;;13.57;12.97;;;15.90;99.90;;;;;;5021782;28;20461;-68
2021/07/11 01:57:07;;;;;;;13.43;12.87;;;15.90;99.90;;;;;;5024660;28;20457;-70
2021/07/11 01:59:34;;;;;;;13.53;12.93;;;15.90;99.90;;;;;;5016729;28;21099;-68
2021/07/11 02:02:02;;;;;;;13.20;12.70;;;15.90;99.90;;;;;;5020940;28;20462;-68
2021/07/11 02:04:29;;;;;;;13.50;12.90;;;15.90;99.90;;;;;;5025067;28;21098;-68
2021/07/11 02:06:56;;;;;;;13.13;12.63;;;15.90;99.90;;;;;;5027899;28;20496;-69
2021/07/11 02:09:26;;;;;;;13.13;12.63;;;16.00;99.90;;;;;;5021488;28;20464;-68
2021/07/11 02:11:56;;;;;;;13.60;13.00;;;15.90;99.90;;;;;;5019963;28;20464;-68
2021/07/11 02:14:28;;;;;;;13.17;12.67;;;15.90;99.90;;;;;;5022364;28;20514;-67
2021/07/11 02:16:59;;;;;;;13.70;13.10;;;15.90;99.90;;;;;;5020070;28;20465;-70
2021/07/11 02:19:29;;;;;;;14.37;13.57;;;15.90;99.90;;;;;;5026403;28;20471;-68
2021/07/11 02:21:57;;;;;;;13.13;12.63;;;15.90;99.90;;;;;;5019127;28;20480;-68
2021/07/11 02:24:25;;;;;;;13.37;12.80;;;15.90;99.90;;;;;;5028854;28;20453;-70
2021/07/11 02:26:53;;;;;;;14.27;13.67;;;16.00;99.90;;;;;;5026008;28;20476;-68
2021/07/11 02:29:20;;;;;;;14.27;13.67;;;15.90;99.90;;;;;;5023493;28;20963;-68
2021/07/11 02:31:48;;;;;;;13.77;13.17;;;15.90;99.90;;;;;;5023178;28;20521;-71
2021/07/11 02:34:18;;;;;;;13.80;13.20;;;16.00;99.90;;;;;;5026881;28;20492;-68
2021/07/11 02:36:49;;;;;;;17.47;16.67;;;16.00;99.90;;;;;;5021886;28;20497;-70
2021/07/11 02:39:18;;;;;;;14.17;13.57;;;15.90;99.90;;;;;;5024040;28;20797;-68
2021/07/11 02:41:50;;;;;;;14.50;13.90;;;15.90;99.90;;;;;;5028209;28;20467;-68
2021/07/11 02:44:18;;;;;;;15.00;14.30;;;15.90;99.90;;;;;;5018479;28;20815;-69
2021/07/11 02:46:49;;;;;;;15.33;14.63;;;15.90;99.90;;;;;;5018374;28;20489;-67
2021/07/11 02:49:22;;;;;;;15.63;14.93;;;15.90;99.90;;;;;;5024825;28;20461;-67
2021/07/11 02:51:54;;;;;;;15.33;14.63;;;15.90;99.90;;;;;;5022373;28;20476;-68
2021/07/11 02:54:26;;;;;;;14.67;14.07;;;16.00;99.90;;;;;;5021911;28;20462;-68
2021/07/11 02:56:58;;;;;;;15.07;14.37;;;16.00;99.90;;;;;;5021240;28;21128;-67
2021/07/11 02:59:26;;;;;;;14.23;13.63;;;16.10;99.90;;;;;;5019911;28;20480;-68
2021/07/11 03:01:54;;;;;;;14.20;13.60;;;16.10;99.90;;;;;;5024365;28;20460;-68
2021/07/11 03:04:22;;;;;;;13.87;13.27;;;16.20;99.90;;;;;;5021957;28;20461;-69
2021/07/11 03:06:48;;;;;;;14.03;13.43;;;16.20;99.90;;;;;;5026036;28;20587;-70
2021/07/11 03:09:17;;;;;;;14.73;14.13;;;16.10;99.90;;;;;;5023537;28;20512;-68
2021/07/11 03:11:45;;;;;;;14.93;14.33;;;16.10;99.90;;;;;;5021798;28;20491;-68
2021/07/11 03:14:14;;;;;;;14.20;13.60;;;16.10;99.90;;;;;;5020670;28;20998;-68
2021/07/11 03:16:51;;;;;;;14.20;13.60;;;16.10;99.90;;;;;;5021662;28;20492;-69
2021/07/11 03:19:20;;;;;;;14.43;13.83;;;16.10;99.90;;;;;;5022114;28;20473;-70
2021/07/11 03:21:48;;;;;;;14.30;13.70;;;16.10;99.90;;;;;;5018540;28;20469;-68
2021/07/11 03:24:19;;;;;;;13.90;13.30;;;16.10;99.90;;;;;;5020662;28;20556;-68
2021/07/11 03:26:46;;;;;;;14.57;13.97;;;16.10;99.90;;;;;;5025753;28;20503;-69
2021/07/11 03:29:25;;;;;;;14.53;13.93;;;16.10;99.90;;;;;;5022157;28;20471;-70
2021/07/11 03:31:54;;;;;;;14.13;13.53;;;16.20;99.90;;;;;;5020077;28;20499;-67
2021/07/11 03:34:26;;;;;;;14.40;13.80;;;16.20;99.90;;;;;;5017188;28;20500;-68
2021/07/11 03:36:55;;;;;;;14.10;13.50;;;16.10;99.90;;;;;;5019610;28;20466;-69
2021/07/11 03:39:25;;;;;;;14.20;13.60;;;16.10;99.90;;;;;;5012820;28;20477;-70
2021/07/11 03:41:55;;;;;;;14.50;13.90;;;16.10;99.90;;;;;;5022358;28;20895;-70
2021/07/11 03:44:24;;;;;;;14.13;13.53;;;16.10;99.90;;;;;;5023660;28;21036;-70
2021/07/11 03:46:53;;;;;;;14.37;13.77;;;16.20;99.90;;;;;;5020889;28;20523;-67
2021/07/11 03:49:22;;;;;;;14.23;13.63;;;16.10;99.90;;;;;;5020323;28;20468;-67
2021/07/11 03:51:50;;;;;;;14.67;14.07;;;16.10;99.90;;;;;;5023283;28;20457;-69
2021/07/11 03:54:18;;;;;;;14.57;13.97;;;16.10;99.90;;;;;;5015283;28;20466;-68
2021/07/11 03:56:49;;;;;;;14.30;13.70;;;16.20;99.90;;;;;;5022028;28;20460;-68
2021/07/11 03:59:17;;;;;;;15.17;14.57;;;16.30;99.90;;;;;;5020303;28;20465;-68
2021/07/11 04:01:46;;;;;;;14.63;14.03;;;16.30;99.90;;;;;;5019386;28;20461;-70
2021/07/11 04:04:18;;;;;;;14.90;14.20;;;16.20;99.90;;;;;;5019381;28;21146;-68
2021/07/11 04:06:49;;;;;;;16.00;15.30;;;16.30;99.90;;;;;;5020424;28;20492;-67
2021/07/11 04:09:19;;;;;;;15.00;14.40;;;16.30;99.90;;;;;;5023098;28;20472;-70
2021/07/11 04:11:48;;;;;;;14.47;13.87;;;16.30;99.90;;;;;;5018128;28;20544;-68
2021/07/11 04:14:16;;;;;;;14.60;14.00;;;16.30;99.90;;;;;;5021895;28;20472;-68
2021/07/11 04:16:45;;;;;;;14.80;14.20;;;16.30;99.90;;;;;;5018235;28;20488;-68
2021/07/11 04:19:14;;;;;;;14.57;13.97;;;16.40;99.90;;;;;;5015383;28;20475;-69
2021/07/11 04:21:43;;;;;;;13.90;13.30;;;16.30;99.90;;;;;;5018291;28;20474;-68
2021/07/11 04:24:11;;;;;;;14.27;13.67;;;16.30;99.90;;;;;;5010943;28;20472;-70
2021/07/11 04:26:39;;;;;;;14.37;13.77;;;16.30;99.90;;;;;;5016307;28;20488;-68
2021/07/11 04:29:08;;;;;;;14.80;14.20;;;16.30;99.90;;;;;;5020785;28;20747;-68
2021/07/11 04:31:35;;;;;;;14.37;13.77;;;16.40;99.90;;;;;;5018763;28;21009;-70
2021/07/11 04:34:13;;;;;;;14.80;14.20;;;16.40;99.90;;;;;;5018591;28;20519;-68
2021/07/11 04:36:40;;;;;;;14.20;13.60;;;16.40;99.90;;;;;;5018387;28;20963;-67
2021/07/11 04:39:09;;;;;;;14.13;13.53;;;16.50;99.90;;;;;;5017494;28;20458;-68
2021/07/11 04:41:41;;;;;;;14.47;13.87;;;16.50;99.90;;;;;;5015092;28;20464;-68
2021/07/11 04:44:09;;;;;;;13.73;13.13;;;16.50;99.90;;;;;;5022253;28;20473;-68
2021/07/11 04:46:37;;;;;;;14.20;13.50;;;16.60;99.90;;;;;;5023426;28;20466;-68
2021/07/11 04:49:06;;;;;;;14.30;13.70;;;16.60;99.90;;;;;;5018944;28;20474;-68
2021/07/11 04:51:33;;;;;;;13.87;13.27;;;16.60;99.90;;;;;;5017297;28;20484;-68
2021/07/11 04:54:00;;;;;;;49.50;39.63;;;16.60;99.90;;;;;;5019863;28;20973;-68
2021/07/11 04:56:27;;;;;;;48.87;41.10;;;16.70;99.90;;;;;;5023186;28;20470;-68
2021/07/11 04:58:54;;;;;;;45.60;38.03;;;16.70;99.90;;;;;;5024189;28;20468;-68
2021/07/11 05:01:22;;;;;;;49.60;38.83;;;16.70;99.90;;;;;;5020116;28;20472;-68
2021/07/11 05:03:50;;;;;;;56.33;41.17;;;16.80;99.90;;;;;;5014627;28;20473;-70
2021/07/11 05:06:18;;;;;;;64.53;40.53;;;16.80;99.90;;;;;;5021252;28;20456;-71
2021/07/11 05:08:46;;;;;;;51.43;40.17;;;16.70;99.90;;;;;;5020193;28;20492;-68
2021/07/11 05:11:13;;;;;;;62.23;45.33;;;16.80;99.90;;;;;;5019964;28;20466;-68
2021/07/11 05:13:40;;;;;;;58.30;42.67;;;16.90;99.90;;;;;;5019137;28;20786;-68
2021/07/11 05:16:08;;;;;;;64.10;41.80;;;16.90;99.90;;;;;;5022527;28;20470;-68
2021/07/11 05:18:39;;;;;;;59.77;41.10;;;16.90;99.90;;;;;;5021797;28;20494;-68
2021/07/11 05:21:06;;;;;;;55.87;42.37;;;17.00;99.90;;;;;;5017118;28;20458;-69
2021/07/11 05:23:33;;;;;;;65.00;38.63;;;16.90;99.90;;;;;;5018885;28;20475;-70
2021/07/11 05:26:01;;;;;;;60.00;41.30;;;16.90;99.90;;;;;;5015573;28;20470;-68
2021/07/11 05:28:28;;;;;;;57.00;41.57;;;17.00;99.90;;;;;;5010926;28;20967;-71
2021/07/11 05:30:55;;;;;;;66.93;41.93;;;17.00;99.90;;;;;;5023633;28;20456;-68
2021/07/11 05:33:22;;;;;;;80.60;43.37;;;17.00;99.90;;;;;;5018596;28;20491;-68
2021/07/11 05:35:50;;;;;;;61.27;44.17;;;17.20;99.90;;;;;;5023322;28;20464;-69
2021/07/11 05:38:18;;;;;;;64.40;42.80;;;17.20;99.90;;;;;;5023982;28;20468;-70
2021/07/11 05:40:45;;;;;;;62.13;43.00;;;17.30;99.90;;;;;;5024732;28;20484;-67
2021/07/11 05:43:12;;;;;;;60.93;42.00;;;17.30;99.90;;;;;;5022748;28;20476;-68
2021/07/11 05:45:39;;;;;;;56.00;42.13;;;17.30;99.90;;;;;;5026762;28;20460;-69
2021/07/11 05:48:06;;;;;;;69.13;42.87;;;17.40;99.90;;;;;;5024717;28;20491;-70
2021/07/11 05:50:33;;;;;;;52.43;37.77;;;17.40;99.90;;;;;;5027209;28;20468;-71
2021/07/11 05:53:01;;;;;;;53.33;38.93;;;17.40;99.90;;;;;;5021675;28;20551;-68
2021/07/11 05:55:28;;;;;;;57.83;37.90;;;17.50;99.90;;;;;;5025846;28;20484;-70
2021/07/11 05:57:55;;;;;;;58.20;37.63;;;17.40;99.90;;;;;;5024270;28;20465;-68
2021/07/11 06:00:22;;;;;;;50.67;36.47;;;17.50;99.90;;;;;;5028548;28;20464;-69
2021/07/11 06:02:49;;;;;;;58.93;38.80;;;17.70;99.90;;;;;;5025580;28;20468;-68
2021/07/11 06:05:16;;;;;;;66.20;45.57;;;17.70;99.90;;;;;;5024233;28;20548;-68
2021/07/11 06:07:43;;;;;;;64.67;44.00;;;17.80;99.90;;;;;;5022932;28;20488;-71
2021/07/11 06:10:12;;;;;;;62.87;43.90;;;17.80;99.90;;;;;;5018840;28;20683;-69
2021/07/11 06:12:39;;;;;;;59.40;41.10;;;17.80;99.90;;;;;;5025643;28;20464;-69
2021/07/11 06:15:08;;;;;;;49.43;38.47;;;17.80;99.90;;;;;;5017931;28;20468;-68
2021/07/11 06:17:35;;;;;;;48.70;36.07;;;17.60;99.90;;;;;;5020852;28;20811;-68
2021/07/11 06:20:05;;;;;;;43.40;34.50;;;17.60;99.90;;;;;;5023246;28;20465;-71
2021/07/11 06:22:32;;;;;;;41.47;33.80;;;17.70;99.90;;;;;;5025372;28;20687;-70
2021/07/11 06:25:06;;;;;;;50.20;34.53;;;17.70;99.90;;;;;;5020980;28;20469;-70
2021/07/11 06:27:34;;;;;;;46.33;34.47;;;17.60;99.90;;;;;;5017092;28;20543;-69
2021/07/11 06:30:02;;;;;;;43.60;33.37;;;17.60;99.90;;;;;;5026893;28;20661;-68
2021/07/11 06:32:29;;;;;;;45.57;35.40;;;17.70;99.90;;;;;;5015883;28;20980;-68
2021/07/11 06:34:55;;;;;;;51.87;36.27;;;17.60;99.90;;;;;;5018346;28;20472;-69
2021/07/11 06:37:22;;;;;;;37.07;31.13;;;17.70;99.90;;;;;;5015583;28;20457;-69
2021/07/11 06:39:49;;;;;;;37.13;32.10;;;17.80;99.90;;;;;;5021512;28;21485;-71
2021/07/11 06:42:16;;;;;;;39.73;32.70;;;17.60;99.90;;;;;;5023344;28;20470;-69
2021/07/11 06:44:45;;;;;;;43.60;32.70;;;17.80;99.90;;;;;;5023005;28;20486;-69
2021/07/11 06:47:12;;;;;;;43.93;33.87;;;17.90;99.90;;;;;;5023366;28;20542;-69
2021/07/11 06:49:39;;;;;;;44.13;33.77;;;17.70;99.90;;;;;;5022048;28;20472;-69
2021/07/11 06:52:06;;;;;;;38.30;31.00;;;17.70;99.90;;;;;;5018376;28;20464;-68
2021/07/11 06:54:34;;;;;;;37.60;31.27;;;17.90;99.90;;;;;;5021142;28;20465;-69
2021/07/11 06:57:01;;;;;;;38.90;30.33;;;17.70;99.90;;;;;;5020420;28;20492;-71
2021/07/11 06:59:28;;;;;;;36.90;30.83;;;17.70;99.90;;;;;;5020991;28;20462;-68
2021/07/11 07:01:56;;;;;;;43.57;32.03;;;17.80;99.90;;;;;;5025300;28;20468;-68
2021/07/11 07:04:23;;;;;;;44.13;31.93;;;17.80;99.90;;;;;;5020275;28;20468;-69
2021/07/11 07:06:51;;;;;;;36.33;30.20;;;17.80;99.90;;;;;;5016941;28;20457;-69
2021/07/11 07:09:18;;;;;;;32.47;27.67;;;17.90;99.90;;;;;;5024382;28;20496;-69
2021/07/11 07:11:45;;;;;;;33.20;29.83;;;18.00;99.90;;;;;;5023496;28;20465;-68
2021/07/11 07:14:13;;;;;;;29.50;26.50;;;18.20;99.90;;;;;;5020705;28;20468;-71
2021/07/11 07:16:40;;;;;;;27.93;25.03;;;18.30;99.90;;;;;;5020933;28;20465;-68
2021/07/11 07:19:08;;;;;;;33.80;28.10;;;18.50;99.90;;;;;;5020490;28;20461;-68
2021/07/11 07:21:37;;;;;;;28.13;25.40;;;18.50;99.90;;;;;;5021576;28;20465;-68
2021/07/11 07:24:05;;;;;;;30.17;27.03;;;18.60;99.90;;;;;;5019666;28;20496;-71
2021/07/11 07:26:33;;;;;;;29.37;26.40;;;18.70;99.90;;;;;;5023595;28;20457;-67
2021/07/11 07:29:00;;;;;;;28.10;25.60;;;18.80;99.90;;;;;;5022775;28;20515;-69
2021/07/11 07:31:27;;;;;;;28.83;26.10;;;18.60;99.90;;;;;;5025568;28;20461;-69
2021/07/11 07:33:54;;;;;;;30.40;26.63;;;18.60;99.90;;;;;;5019052;28;20493;-68
2021/07/11 07:36:23;;;;;;;31.20;27.07;;;18.70;99.90;;;;;;5022922;28;20967;-69
2021/07/11 07:38:50;;;;;;;32.73;27.80;;;18.90;99.90;;;;;;5023966;28;20469;-68
2021/07/11 07:41:16;;;;;;;29.67;26.70;;;18.90;99.90;;;;;;5020601;28;20460;-70
2021/07/11 07:43:43;;;;;;;28.93;25.93;;;18.80;99.90;;;;;;5026532;28;20472;-70
2021/07/11 07:46:10;;;;;;;28.80;25.80;;;18.90;99.90;;;;;;5024451;28;20464;-71
2021/07/11 07:48:37;;;;;;;29.50;26.50;;;19.10;99.90;;;;;;5022918;28;20858;-68
2021/07/11 07:51:04;;;;;;;29.47;26.37;;;19.20;99.90;;;;;;5021539;28;20472;-71
2021/07/11 07:53:33;;;;;;;28.73;24.20;;;19.20;99.90;;;;;;5016435;28;20492;-68
2021/07/11 07:56:01;;;;;;;31.00;27.93;;;19.40;99.90;;;;;;5020570;28;20487;-69
2021/07/11 07:58:29;;;;;;;30.00;27.10;;;19.50;99.90;;;;;;5017698;28;20465;-68
2021/07/11 08:00:56;;;;;;;29.93;27.03;;;19.60;99.90;;;;;;5018765;28;20952;-68
2021/07/11 08:03:22;;;;;;;30.60;27.30;;;19.50;99.90;;;;;;5022977;28;20465;-68
2021/07/11 08:05:50;;;;;;;35.43;29.70;;;19.50;99.90;;;;;;5020786;28;20495;-68
2021/07/11 08:08:17;;;;;;;33.10;29.40;;;19.70;99.90;;;;;;5019686;28;20952;-68
2021/07/11 08:10:45;;;;;;;31.53;28.33;;;20.00;99.90;;;;;;5024289;28;20838;-70
2021/07/11 08:13:12;;;;;;;29.47;26.60;;;20.10;99.90;;;;;;5020474;28;20472;-70
2021/07/11 08:15:40;;;;;;;27.90;25.20;;;20.30;99.90;;;;;;5023661;28;20481;-68
2021/07/11 08:18:07;;;;;;;24.83;22.63;;;20.50;99.90;;;;;;5021655;28;20460;-69
2021/07/11 08:20:34;;;;;;;23.03;21.13;;;21.10;99.90;;;;;;5019756;28;20472;-68
2021/07/11 08:23:02;;;;;;;22.10;20.30;;;21.40;99.90;;;;;;5026923;28;20461;-69
2021/07/11 08:25:29;;;;;;;39.37;21.17;;;21.70;99.90;;;;;;5023571;28;20461;-69
2021/07/11 08:27:58;;;;;;;21.80;20.00;;;21.90;99.90;;;;;;5018431;28;20489;-70
2021/07/11 08:30:25;;;;;;;22.13;20.43;;;22.10;99.90;;;;;;5020536;28;20947;-69
2021/07/11 08:32:52;;;;;;;20.80;18.90;;;22.40;99.90;;;;;;5014984;28;20520;-69
2021/07/11 08:35:20;;;;;;;20.83;19.23;;;22.40;99.90;;;;;;5019208;28;20472;-68
2021/07/11 08:37:47;;;;;;;20.00;18.60;;;22.40;99.90;;;;;;5021453;28;20808;-71
2021/07/11 08:40:15;;;;;;;20.83;19.27;;;22.70;99.90;;;;;;5019534;28;20481;-69
2021/07/11 08:42:42;;;;;;;18.60;17.30;;;22.70;99.90;;;;;;5021748;28;20465;-69
2021/07/11 08:45:12;;;;;;;17.00;16.00;;;23.00;99.90;;;;;;5024206;28;20469;-69
2021/07/11 08:47:40;;;;;;;17.37;15.83;;;23.50;99.90;;;;;;5022204;28;20469;-68
2021/07/11 08:50:09;;;;;;;17.70;16.53;;;23.90;99.90;;;;;;5019673;28;20562;-71
2021/07/11 08:52:36;;;;;;;17.57;16.37;;;24.00;99.90;;;;;;5018911;28;20549;-68
2021/07/11 08:55:15;;;;;;;18.83;17.43;;;23.70;99.90;;;;;;5023118;28;20464;-70
2021/07/11 08:57:48;;;;;;;18.53;17.23;;;23.20;99.90;;;;;;5017149;28;20468;-71
2021/07/11 09:00:17;;;;;;;16.97;15.97;;;22.70;99.90;;;;;;5023262;28;20473;-70
2021/07/11 09:02:44;;;;;;;18.03;16.70;;;23.30;99.90;;;;;;5016517;28;20468;-72
2021/07/11 09:05:22;;;;;;;17.23;16.20;;;23.80;99.90;;;;;;5022172;28;20461;-69
2021/07/11 09:08:04;;;;;;;17.57;16.47;;;24.10;99.90;;;;;;5020621;28;20465;-72
2021/07/11 09:10:35;;;;;;;17.47;16.27;;;23.50;99.90;;;;;;5022832;28;20466;-69
2021/07/11 09:13:02;;;;;;;17.60;16.30;;;23.00;99.90;;;;;;5026980;28;20472;-68
2021/07/11 09:15:33;;;;;;;16.40;15.50;;;23.10;99.90;;;;;;5024268;28;20717;-69
2021/07/11 09:18:00;;;;;;;16.63;15.63;;;23.80;99.90;;;;;;5024300;28;20471;-69
2021/07/11 09:20:28;;;;;;;17.47;16.47;;;24.90;99.90;;;;;;5023247;28;20456;-69
2021/07/11 09:22:59;;;;;;;16.67;15.57;;;25.10;99.90;;;;;;5021369;28;20469;-69
2021/07/11 09:25:27;;;;;;;17.50;16.50;;;24.50;99.90;;;;;;5029249;28;20467;-72
2021/07/11 09:27:54;;;;;;;18.53;16.93;;;23.80;99.90;;;;;;5026236;28;20460;-68
2021/07/11 09:30:21;;;;;;;17.53;16.50;;;23.70;99.90;;;;;;5021434;28;20775;-68
2021/07/11 09:32:55;;;;;;;16.90;15.93;;;24.20;99.90;;;;;;5023937;28;21063;-71
2021/07/11 09:35:24;;;;;;;16.00;14.90;;;24.70;99.90;;;;;;5023001;28;20478;-72
2021/07/11 09:37:53;;;;;;;16.03;15.13;;;25.70;99.90;;;;;;5023077;28;20468;-69
2021/07/11 09:40:21;;;;;;;15.40;14.40;;;26.20;99.90;;;;;;5021555;28;20497;-69
2021/07/11 09:42:51;;;;;;;16.13;14.93;;;25.40;99.90;;;;;;5024056;28;20534;-70
2021/07/11 09:45:19;;;;;;;16.03;14.83;;;25.50;99.90;;;;;;5023266;28;21105;-68
2021/07/11 09:47:48;;;;;;;16.87;15.93;;;26.10;99.90;;;;;;5023378;28;20464;-69
2021/07/11 09:50:21;;;;;;;16.27;15.20;;;26.70;99.90;;;;;;5021735;28;20489;-69
2021/07/11 09:52:49;;;;;;;15.50;14.60;;;26.10;99.90;;;;;;5018292;28;20468;-71
2021/07/11 09:55:20;;;;;;;20.80;16.07;;;25.70;99.90;;;;;;5018864;28;21017;-73
2021/07/11 09:57:48;;;;;;;16.17;15.23;;;26.20;99.90;;;;;;5024576;28;20469;-69
2021/07/11 10:00:21;;;;;;;15.40;14.50;;;25.90;99.90;;;;;;5029155;28;20457;-69
2021/07/11 10:02:50;;;;;;;15.90;15.10;;;26.10;99.90;;;;;;5023566;28;20456;-70
2021/07/11 10:05:19;;;;;;;16.60;15.73;;;26.90;99.90;;;;;;5027401;28;20483;-72
2021/07/11 10:07:48;;;;;;;15.40;14.50;;;27.10;99.90;;;;;;5024275;28;20469;-73
2021/07/11 10:10:16;;;;;;;14.40;13.47;;;26.80;99.90;;;;;;5022752;28;20493;-71
2021/07/11 10:12:44;;;;;;;14.67;13.70;;;26.60;99.90;;;;;;5015098;28;20788;-69
2021/07/11 10:15:13;;;;;;;14.43;13.73;;;26.30;99.90;;;;;;5024907;28;20465;-72
2021/07/11 10:17:47;;;;;;;15.60;14.80;;;26.50;99.90;;;;;;5023995;28;20460;-72
2021/07/11 10:20:16;;;;;;;14.90;14.20;;;26.90;99.90;;;;;;5021301;28;20448;-72
2021/07/11 10:22:48;;;;;;;16.10;15.07;;;27.50;99.90;;;;;;5018963;28;20461;-70
2021/07/11 10:25:18;;;;;;;15.97;15.07;;;27.80;99.90;;;;;;5022810;28;20465;-73
2021/07/11 10:27:46;;;;;;;16.30;15.10;;;27.40;99.90;;;;;;5017321;28;20472;-72
2021/07/11 10:30:15;;;;;;;16.87;15.97;;;27.40;99.90;;;;;;5022104;28;20504;-71
2021/07/11 10:32:42;;;;;;;16.83;15.93;;;27.30;99.90;;;;;;5016545;28;20968;-71
2021/07/11 10:35:14;;;;;;;17.00;16.00;;;27.00;99.90;;;;;;5024672;28;21033;-70
2021/07/11 10:37:50;;;;;;;16.07;15.10;;;26.30;99.90;;;;;;5020229;28;21112;-71
2021/07/11 10:40:22;;;;;;;16.97;15.53;;;26.30;99.90;;;;;;5021976;28;20825;-74
2021/07/11 10:42:51;;;;;;;16.47;15.57;;;26.90;99.90;;;;;;5021374;28;20461;-74
2021/07/11 10:45:20;;;;;;;16.70;15.70;;;27.70;99.90;;;;;;5019826;28;20457;-69
2021/07/11 10:47:48;;;;;;;15.87;14.97;;;28.20;99.90;;;;;;5028761;28;20464;-70
2021/07/11 10:50:30;;;;;;;16.93;16.03;;;28.30;99.90;;;;;;5019948;28;20485;-70
2021/07/11 10:53:00;;;;;;;15.97;15.17;;;28.50;99.90;;;;;;5019642;28;20553;-70
2021/07/11 10:55:40;;;;;;;16.23;15.33;;;28.80;99.90;;;;;;5021122;28;20460;-69
2021/07/11 10:58:15;;;;;;;17.53;16.53;;;28.00;99.90;;;;;;5019618;28;20580;-69
2021/07/11 11:00:44;;;;;;;19.10;17.80;;;27.90;99.90;;;;;;5025608;28;20855;-74
2021/07/11 11:03:19;;;;;;;16.73;15.83;;;27.30;99.90;;;;;;5025303;28;20471;-72
2021/07/11 11:05:49;;;;;;;17.57;16.67;;;26.30;99.90;;;;;;5016824;28;20833;-69
2021/07/11 11:08:19;;;;;;;17.50;16.40;;;26.10;99.90;;;;;;5025211;28;20482;-69
2021/07/11 11:10:49;;;;;;;17.60;16.30;;;25.90;99.90;;;;;;5025764;28;20456;-71
2021/07/11 11:13:25;;;;;;;16.87;15.37;;;26.00;99.90;;;;;;5020644;28;20491;-69
2021/07/11 11:15:53;;;;;;;16.70;15.60;;;26.10;99.90;;;;;;5023363;28;20515;-69
2021/07/11 11:18:38;;;;;;;16.97;15.80;;;25.70;99.90;;;;;;5023931;28;20472;-69
2021/07/11 11:21:08;;;;;;;16.50;15.60;;;25.80;99.90;;;;;;5017013;28;20537;-72
2021/07/11 11:23:39;;;;;;;17.00;16.00;;;26.10;99.90;;;;;;5022093;28;20819;-72
2021/07/11 11:26:07;;;;;;;16.90;16.00;;;25.70;99.90;;;;;;5023685;28;20444;-68
2021/07/11 11:28:37;;;;;;;17.03;15.93;;;25.40;99.90;;;;;;5020309;28;20469;-69
2021/07/11 11:31:10;;;;;;;18.00;17.00;;;25.10;99.90;;;;;;5022988;28;20551;-72
2021/07/11 11:33:46;;;;;;;17.43;16.43;;;24.90;99.90;;;;;;5020467;28;20520;-70
2021/07/11 11:36:14;;;;;;;17.47;16.47;;;25.10;99.90;;;;;;5018186;28;20475;-71
2021/07/11 11:38:46;;;;;;;17.27;16.13;;;25.00;99.90;;;;;;5018817;28;20475;-68
2021/07/11 11:41:13;;;;;;;16.90;15.90;;;25.10;99.90;;;;;;5027528;28;21097;-69
2021/07/11 11:43:41;;;;;;;16.83;16.00;;;25.00;99.90;;;;;;5018602;28;20465;-68
2021/07/11 11:46:10;;;;;;;17.30;16.40;;;24.80;99.90;;;;;;5021837;28;20526;-68
2021/07/11 11:48:38;;;;;;;16.00;15.10;;;24.80;99.90;;;;;;5017477;28;20466;-71
2021/07/11 11:51:08;;;;;;;16.50;15.60;;;24.80;99.90;;;;;;5021073;28;20823;-69
2021/07/11 11:53:45;;;;;;;17.23;16.10;;;24.70;99.90;;;;;;5022063;28;20456;-73
2021/07/11 11:56:13;;;;;;;17.20;15.57;;;24.60;99.90;;;;;;5016343;28;20469;-68
2021/07/11 11:58:40;;;;;;;15.83;15.03;;;24.70;99.90;;;;;;5019458;28;20473;-68
2021/07/11 12:01:09;;;;;;;16.27;15.27;;;24.20;99.90;;;;;;5026406;28;20819;-72
2021/07/11 12:03:37;;;;;;;16.87;15.90;;;24.70;99.90;;;;;;5021498;28;20468;-68
2021/07/11 12:06:06;;;;;;;17.00;16.00;;;25.20;99.90;;;;;;5021364;28;20482;-69
2021/07/11 12:08:34;;;;;;;15.50;14.70;;;25.70;99.90;;;;;;5013735;28;20787;-69
2021/07/11 12:11:06;;;;;;;16.90;16.00;;;25.80;99.90;;;;;;5023172;28;20499;-68
2021/07/11 12:13:34;;;;;;;15.70;14.90;;;25.80;99.90;;;;;;5022144;28;20543;-68
2021/07/11 12:16:09;;;;;;;15.70;14.77;;;26.00;99.90;;;;;;5020727;28;20464;-69
2021/07/11 12:18:45;;;;;;;17.00;16.10;;;26.60;99.90;;;;;;5017942;28;20543;-70
2021/07/11 12:21:18;;;;;;;16.10;15.20;;;26.60;99.90;;;;;;5022643;28;20464;-67
2021/07/11 12:23:45;;;;;;;15.97;15.00;;;26.70;99.90;;;;;;5018594;28;20464;-68
2021/07/11 12:26:15;;;;;;;15.67;14.87;;;26.80;99.90;;;;;;5018864;28;20460;-68
2021/07/11 12:28:52;;;;;;;15.93;15.13;;;26.80;99.90;;;;;;5023255;28;20462;-68
2021/07/11 12:31:20;;;;;;;15.43;14.67;;;26.90;99.90;;;;;;5017763;28;20561;-68
2021/07/11 12:33:48;;;;;;;14.57;13.87;;;26.90;99.90;;;;;;5024161;28;20534;-68
2021/07/11 12:36:15;;;;;;;14.83;14.13;;;27.20;99.90;;;;;;5020336;28;20461;-68